Time;durP1;ratioP1;P1;durP2;ratioP2;P2;SDS_P1;SDS_P2;PMS_P1;PMS_P2;Temp;Humidity;BMP_temperature;BMP_pressure;BME280_temperature;BME280_humidity;BME280_pressure;Samples;Min_cycle;Max_cycle;Signal;HPM_P1;HPM_P2
2023/01/13 06:54:16;;;;;;;;;;;;;;;;;;;;;
2023/01/13 06:56:40;;;;;;;;;0.50;0.00;;;;;8.09;90.34;100557.50;4832991;29;44848;-93
2023/01/13 06:59:21;;;;;;;;;;;;;;;;;;;;;
2023/01/13 07:01:59;;;;;;;;;1.00;0.00;;;;;6.90;90.52;100386.72;4837708;29;72022;-94
2023/01/13 07:04:24;;;;;;;;;1.00;1.00;;;;;5.33;90.33;100126.19;4858515;29;45485;-94
2023/01/13 07:53:49;;;;;;;;;3.75;0.50;;;;;7.94;90.63;100618.16;949815;23;46297;-87
2023/01/13 07:56:15;;;;;;;;;1.00;1.00;;;;;7.71;90.74;100598.16;4832558;29;45293;-93
2023/01/13 07:58:42;;;;;;;;;1.75;0.75;;;;;7.68;90.62;100586.78;4833990;29;45201;-93
2023/01/13 08:01:11;;;;;;;;;0.50;0.50;;;;;7.31;90.12;100537.97;4819456;29;46597;-95
2023/01/13 08:03:37;;;;;;;;;1.50;0.25;;;;;7.95;90.67;100654.97;4823566;29;45450;-91
2023/01/13 08:06:03;;;;;;;;;1.50;1.50;;;;;7.31;90.10;100551.13;4840615;29;44703;-93
2023/01/13 08:08:29;;;;;;;;;1.00;1.00;;;;;7.20;89.80;100527.53;4819199;29;45350;-92
2023/01/13 08:10:59;;;;;;;;;2.00;1.00;;;;;7.32;90.40;100539.72;4832875;29;48224;-93
2023/01/13 08:13:24;;;;;;;;;2.00;1.00;;;;;7.84;90.26;100622.63;4831367;29;45378;-94
2023/01/13 08:19:12;;;;;;;;;0.25;0.25;;;;;7.63;90.63;100585.06;4831764;29;45266;-92
2023/01/13 08:21:37;;;;;;;;;3.00;2.00;;;;;8.18;89.91;100664.44;4832656;29;46833;-93
2023/01/13 08:24:02;;;;;;;;;4.75;3.00;;;;;8.22;90.21;100674.09;4840151;29;45297;-92
2023/01/13 08:26:28;;;;;;;;;3.25;2.00;;;;;6.61;90.25;100394.81;4837839;29;44745;-93
2023/01/13 08:28:54;;;;;;;;;1.75;1.75;;;;;7.68;90.46;100597.31;4828383;29;44884;-93
2023/01/13 08:31:20;;;;;;;;;1.50;1.00;;;;;7.72;90.01;100578.00;4827274;29;47031;-91
2023/01/13 08:33:45;;;;;;;;;1.00;1.00;;;;;7.82;89.78;100606.00;4839157;29;45242;-92
2023/01/13 08:36:11;;;;;;;;;2.00;2.00;;;;;8.42;90.23;100691.47;4818945;29;45262;-92
2023/01/13 08:38:39;;;;;;;;;1.00;1.00;;;;;8.48;90.31;100687.03;4821182;29;45310;-91
2023/01/13 08:41:53;;;;;;;;;2.00;1.00;;;;;8.34;89.44;100642.34;4834021;29;46482;-93
2023/01/13 08:44:00;;;;;;;;;3.75;0.75;;;;;8.21;89.57;100614.41;4830040;29;44711;-92
2023/01/13 08:46:26;;;;;;;;;1.25;0.00;;;;;8.74;89.68;100695.59;4829126;29;45270;-91
2023/01/13 08:48:57;;;;;;;;;1.00;1.00;;;;;8.38;89.26;100626.53;4833001;29;45272;-93
2023/01/13 08:51:22;;;;;;;;;2.00;2.00;;;;;8.25;89.49;100594.19;4834035;29;47224;-92
2023/01/13 08:53:48;;;;;;;;;2.00;0.25;;;;;8.90;89.76;100686.63;4829642;29;44658;-91
2023/01/13 08:56:13;;;;;;;;;1.00;1.00;;;;;8.41;89.66;100605.44;4863721;29;44928;-92
2023/01/13 08:58:39;;;;;;;;;3.00;2.00;;;;;8.41;89.57;100581.72;4863232;29;45305;-93
2023/01/13 09:01:07;;;;;;;;;2.00;1.00;;;;;8.41;89.16;100598.41;4844075;29;46455;-91
2023/01/13 09:03:32;;;;;;;;;1.00;1.00;;;;;9.11;89.15;100709.22;4839457;29;45370;-92
2023/01/13 09:05:58;;;;;;;;;1.25;1.25;;;;;8.57;89.00;100601.78;4837527;29;45444;-92
2023/01/13 09:08:23;;;;;;;;;1.50;0.25;;;;;8.74;89.05;100619.16;4816639;29;45436;-92
2023/01/13 09:10:49;;;;;;;;;2.75;1.00;;;;;8.25;88.82;100547.66;4827642;29;46856;-94
2023/01/13 09:13:16;;;;;;;;;1.00;1.00;;;;;7.87;88.64;100466.47;4848207;29;45701;-93
2023/01/13 09:15:44;;;;;;;;;1.00;0.00;;;;;8.66;88.20;100585.84;4852564;29;45508;-93
2023/01/13 09:18:10;;;;;;;;;1.75;1.00;;;;;9.58;88.35;100720.03;4842252;29;45297;-91
2023/01/13 09:20:36;;;;;;;;;0.75;0.75;;;;;9.21;88.08;100641.41;4833898;29;45365;-92
2023/01/13 09:23:02;;;;;;;;;1.25;1.25;;;;;9.22;88.11;100619.44;4850134;29;45253;-92
2023/01/13 09:25:29;;;;;;;;;3.50;1.75;;;;;9.54;88.27;100639.19;4820737;29;45468;-92
2023/01/13 09:27:55;;;;;;;;;4.25;1.00;;;;;9.23;87.75;100535.00;4816682;29;44859;-91
2023/01/13 09:30:21;;;;;;;;;2.25;2.00;;;;;10.42;86.31;100715.28;4834086;29;47849;-91
2023/01/13 09:32:46;;;;;;;;;2.00;2.00;;;;;10.29;86.42;100690.81;4818325;29;45482;-91
2023/01/13 09:35:12;;;;;;;;;4.25;2.00;;;;;9.48;85.91;100534.63;4826120;29;44871;-91
2023/01/13 09:37:40;;;;;;;;;2.00;1.00;;;;;10.42;86.15;100680.94;4841928;29;45337;-91
2023/01/13 09:40:16;;;;;;;;;0.75;0.00;;;;;10.29;85.79;100656.47;4841239;29;46919;-92
2023/01/13 09:45:43;;;;;;;;;5.75;3.00;;;;;11.03;84.99;100725.63;4846833;29;45352;-90
2023/01/13 09:48:23;;;;;;;;;1.75;0.00;;;;;10.61;84.13;100640.94;4844296;29;45489;-92
2023/01/13 09:51:23;;;;;;;;;1.00;1.00;;;;;11.27;84.96;100736.66;4837533;29;47069;-88
2023/01/13 09:54:15;;;;;;;;;3.00;3.00;;;;;9.65;84.44;100464.84;4851604;29;45592;-92
2023/01/13 09:56:41;;;;;;;;;2.00;1.50;;;;;9.69;84.79;100479.75;4823461;29;45495;-93
2023/01/13 09:59:10;;;;;;;;;2.50;0.75;;;;;10.23;84.53;100592.31;4851583;29;45640;-92
2023/01/13 10:02:14;;;;;;;;;2.00;0.75;;;;;11.00;83.97;100701.91;4836442;29;46220;-94
2023/01/13 10:04:39;;;;;;;;;0.50;0.25;;;;;10.76;84.48;100659.16;4846489;29;45412;-93
2023/01/13 10:10:48;;;;;;;;;1.50;1.50;;;;;10.43;82.07;100610.44;4837456;29;45229;-94
2023/01/13 10:17:00;;;;;;;;;0.75;0.75;;;;;11.27;81.38;100757.81;4844184;29;45384;-91
2023/01/13 10:19:32;;;;;;;;;1.00;1.00;;;;;11.20;82.54;100792.34;4844057;29;45408;-88
2023/01/13 10:22:29;;;;;;;;;0.00;0.00;;;;;8.90;81.69;100388.75;4828005;29;45188;-95
2023/01/13 10:25:32;;;;;;;;;1.00;1.00;;;;;11.08;82.67;100781.09;4792483;29;46821;-91
2023/01/13 10:28:07;;;;;;;;;0.75;0.75;;;;;10.05;82.32;100588.22;4775238;29;45512;-94
2023/01/13 10:30:38;;;;;;;;;16.00;13.50;;;;;9.99;81.47;100562.81;4764248;29;45375;-95
2023/01/13 10:33:13;;;;;;;;;3.25;1.75;;;;;10.01;80.52;100517.91;4779080;29;44911;-91
2023/01/13 10:35:54;;;;;;;;;3.75;3.75;;;;;11.77;78.88;100779.72;4787728;29;48281;-92
2023/01/13 10:39:04;;;;;;;;;2.00;1.00;;;;;12.05;78.94;100779.97;4810058;29;45632;-92
2023/01/13 16:21:24;;;;;;;;;1.50;1.50;;;;;8.66;80.32;100949.50;5114435;27;45476;-94
2023/01/13 17:59:03;;;;;;;;;8.00;3.25;;;;;8.69;80.77;101249.94;3296847;23;46701;-88
2023/01/13 18:01:31;;;;;;;;;2.00;1.00;;;;;6.95;80.74;100968.31;4944691;28;46673;-91
2023/01/13 18:07:47;;;;;;;;;3.75;2.00;;;;;8.79;79.94;101268.34;4970558;28;44766;-92
2023/01/13 18:10:19;;;;;;;;;1.25;1.25;;;;;6.78;80.41;100922.75;4960737;28;45353;-96
2023/01/13 18:12:50;;;;;;;;;2.00;2.00;;;;;6.78;80.53;100913.09;4976989;28;44788;-95
2023/01/13 18:15:20;;;;;;;;;3.50;1.75;;;;;7.62;81.03;101071.78;4974490;28;44811;-96
2023/01/13 18:17:45;;;;;;;;;1.75;1.75;;;;;7.31;80.73;101007.78;4955539;28;45652;-95
2023/01/13 18:28:40;;;;;;;;;3.25;2.25;;;;;7.56;81.13;101051.63;4967549;28;45327;-93
2023/01/13 18:31:09;;;;;;;;;1.50;1.50;;;;;7.24;81.07;100997.28;4969840;28;47868;-94
2023/01/13 18:33:34;;;;;;;;;2.25;2.00;;;;;6.55;81.48;100885.06;4952430;28;45247;-93
2023/01/13 18:36:07;;;;;;;;;4.00;4.00;;;;;8.67;81.34;101254.34;4967700;28;45433;-92
2023/01/13 18:38:39;;;;;;;;;3.00;3.00;;;;;8.23;81.05;101186.72;4955079;28;44994;-92
2023/01/13 18:42:50;;;;;;;;;2.00;2.00;;;;;8.47;81.19;101250.81;4981927;28;45000;-91
2023/01/13 18:43:51;;;;;;;;;4.25;2.00;;;;;7.00;80.83;100986.72;4966343;28;45409;-91
2023/01/13 18:46:26;;;;;;;;;2.00;1.75;;;;;6.82;81.49;100958.66;4948445;28;45389;-91
2023/01/13 18:48:55;;;;;;;;;3.00;2.00;;;;;6.03;81.08;100840.34;4969807;28;45400;-92
2023/01/13 18:51:28;;;;;;;;;2.50;2.50;;;;;6.95;81.36;100986.69;4971005;28;45294;-90
2023/01/13 18:54:02;;;;;;;;;2.00;2.00;;;;;7.97;80.81;101153.38;4949825;28;45326;-93
2023/01/13 18:59:56;;;;;;;;;3.00;2.00;;;;;6.31;81.76;100891.13;4932162;28;45524;-92
2023/01/13 19:02:25;;;;;;;;;4.00;4.00;;;;;7.59;81.71;101121.75;4909497;28;45665;-92
2023/01/13 19:04:53;;;;;;;;;5.00;4.00;;;;;8.42;81.95;101255.19;4927556;28;45450;-91
2023/01/13 19:07:27;;;;;;;;;3.50;3.50;;;;;8.08;81.66;101223.59;4929879;28;44751;-92
2023/01/13 19:09:54;;;;;;;;;5.00;3.75;;;;;7.40;81.68;101120.88;4938954;28;44818;-94
2023/01/13 19:12:29;;;;;;;;;5.00;3.00;;;;;8.22;81.70;101232.38;4917243;28;46905;-95
2023/01/13 19:15:00;;;;;;;;;6.25;5.00;;;;;8.35;81.70;101264.84;4926230;28;45284;-93
2023/01/13 19:17:32;;;;;;;;;4.75;3.75;;;;;7.79;81.38;101163.91;4918977;28;45442;-94
2023/01/13 19:19:58;;;;;;;;;2.50;2.50;;;;;6.72;82.10;100991.91;4939037;28;45312;-92
2023/01/13 19:22:37;;;;;;;;;2.00;1.50;;;;;6.32;81.53;100907.78;4913114;28;46358;-92
2023/01/13 19:25:08;;;;;;;;;1.25;1.25;;;;;7.04;81.56;101041.91;4921739;28;45248;-95
2023/01/13 19:27:37;;;;;;;;;8.25;4.75;;;;;8.27;82.33;101248.16;4910378;28;44836;-94
2023/01/13 19:30:12;;;;;;;;;1.00;1.00;;;;;8.26;82.06;101257.84;4913113;28;45217;-94
2023/01/13 19:33:16;;;;;;;;;4.50;3.00;;;;;6.60;81.14;100978.75;4912056;28;47194;-94
2023/01/13 19:39:48;;;;;;;;;7.25;5.00;;;;;8.20;81.87;101268.38;4977618;28;44610;-94
2023/01/13 19:46:58;;;;;;;;;;;;;;;;;;;;;
2023/01/13 19:59:54;;;;;;;;;4.50;2.75;;;;;6.55;81.71;101042.66;4845781;29;45313;-94
2023/01/13 20:02:30;;;;;;;;;4.00;3.75;;;;;6.30;81.81;100988.28;4838366;29;44782;-94
2023/01/13 20:05:24;;;;;;;;;1.50;1.00;;;;;6.60;81.82;101044.44;4839232;29;45285;-95
2023/01/13 20:08:00;;;;;;;;;4.00;4.00;;;;;8.01;82.23;101275.34;4841137;29;44793;-95
2023/01/13 20:11:20;;;;;;;;;3.50;3.50;;;;;8.01;82.49;101291.16;4826630;29;46996;-95
2023/01/13 20:17:06;;;;;;;;;6.75;4.00;;;;;7.21;82.72;101180.41;4839760;29;44785;-94
2023/01/13 20:19:34;;;;;;;;;4.00;2.75;;;;;6.93;82.18;101107.59;4837551;29;45356;-93
2023/01/13 20:22:00;;;;;;;;;4.00;2.75;;;;;5.48;82.42;100865.44;4845889;29;46785;-95
2023/01/13 20:24:35;;;;;;;;;7.00;3.00;;;;;6.81;82.42;101101.44;4915796;29;46379;-93
2023/01/13 20:30:22;;;;;;;;;6.50;5.75;;;;;7.45;82.66;101203.28;4914306;29;44782;-94
2023/01/13 20:32:54;;;;;;;;;4.00;3.00;;;;;7.49;83.04;101204.19;4942228;28;46544;-95
2023/01/13 20:35:35;;;;;;;;;3.50;3.00;;;;;7.92;82.73;101280.59;4962176;28;45448;-95
2023/01/13 20:38:10;;;;;;;;;4.75;3.00;;;;;6.28;82.67;101024.16;4963350;28;44683;-94
2023/01/13 20:40:39;;;;;;;;;5.50;5.00;;;;;6.86;82.90;101141.72;4938743;28;45372;-91
2023/01/13 20:43:05;;;;;;;;;6.25;4.75;;;;;6.40;82.17;101046.06;4949710;28;47022;-93
2023/01/13 20:45:32;;;;;;;;;6.00;4.00;;;;;5.78;82.63;100932.00;4935406;28;45276;-91
2023/01/13 20:47:58;;;;;;;;;3.50;3.50;;;;;6.37;82.87;101050.44;4953371;28;45388;-92
2023/01/13 20:50:23;;;;;;;;;3.00;3.00;;;;;6.28;82.56;101029.41;4944586;28;45315;-92
2023/01/13 20:52:51;;;;;;;;;2.75;2.00;;;;;7.85;83.40;101295.50;4959460;28;45243;-92
2023/01/13 20:55:27;;;;;;;;;3.25;3.25;;;;;6.88;83.03;101135.63;4960688;28;45284;-91
2023/01/13 20:57:53;;;;;;;;;7.75;6.75;;;;;7.87;83.12;101287.63;4961249;28;44691;-94
2023/01/13 21:00:18;;;;;;;;;4.50;4.00;;;;;5.27;82.62;100839.97;4983181;28;44907;-95
2023/01/13 21:05:19;;;;;;;;;5.00;5.00;;;;;5.74;82.44;100942.47;5051145;23;44905;-92
2023/01/13 21:07:45;;;;;;;;;7.00;5.50;;;;;7.57;83.16;101232.25;4976499;28;45035;-91
2023/01/13 21:10:12;;;;;;;;;4.75;2.00;;;;;6.43;83.03;101036.47;4979663;28;45563;-91
2023/01/13 21:15:24;;;;;;;;;2.75;2.75;;;;;7.45;82.35;101227.88;4988458;28;44796;-92
2023/01/13 21:41:08;;;;;;;;;4.00;4.00;;;;;6.28;83.15;101000.53;4998384;28;46321;-93
2023/01/13 21:49:07;;;;;;;;;4.00;3.25;;;;;6.66;82.58;101054.94;4987732;28;45181;-95
2023/01/13 21:51:35;;;;;;;;;2.25;2.00;;;;;6.54;82.78;101051.41;4958534;28;45280;-93
2023/01/13 21:54:00;;;;;;;;;4.00;4.00;;;;;7.24;82.99;101167.28;4956433;28;47227;-92
2023/01/13 21:56:33;;;;;;;;;6.50;3.75;;;;;6.94;83.20;101117.25;4972493;28;45306;-95
2023/01/13 21:58:58;;;;;;;;;4.00;3.00;;;;;6.55;83.05;101042.66;4955863;28;45474;-89
2023/01/13 22:01:25;;;;;;;;;3.50;3.50;;;;;5.24;82.30;100818.06;4973718;28;45353;-95
2023/01/13 22:06:35;;;;;;;;;3.75;3.75;;;;;7.70;83.09;101234.91;4982439;28;45420;-92
2023/01/13 22:09:12;;;;;;;;;4.75;4.75;;;;;6.20;83.14;100977.72;4965186;28;45468;-95
2023/01/13 22:11:38;;;;;;;;;4.00;4.00;;;;;5.00;83.09;100764.69;4955410;28;45357;-94
2023/01/13 22:14:05;;;;;;;;;3.25;2.50;;;;;6.67;82.07;101077.72;4955797;28;45390;-94
2023/01/13 22:16:38;;;;;;;;;3.00;2.00;;;;;6.71;82.14;101043.59;4969140;28;45371;-95
2023/01/13 22:19:05;;;;;;;;;3.00;3.00;;;;;6.19;82.99;100973.34;4969883;28;45437;-92
2023/01/13 22:21:40;;;;;;;;;7.00;4.25;;;;;6.15;83.26;100966.34;4974280;28;45251;-94
2023/01/13 22:24:06;;;;;;;;;9.25;3.00;;;;;4.80;82.67;100725.28;4981531;28;48263;-92
2023/01/13 22:26:34;;;;;;;;;3.75;3.75;;;;;6.20;82.96;100959.34;4976289;28;45211;-90
2023/01/13 22:29:01;;;;;;;;;2.50;2.50;;;;;6.82;82.94;101063.75;4975387;28;45321;-93
2023/01/13 22:31:30;;;;;;;;;4.00;2.75;;;;;7.28;82.90;101153.28;4979319;28;44855;-93
2023/01/13 22:33:56;;;;;;;;;6.50;3.00;;;;;5.19;82.61;100770.00;4970736;28;45225;-95
2023/01/13 22:36:25;;;;;;;;;7.00;3.75;;;;;6.18;82.38;100948.00;4974977;28;46041;-94
2023/01/13 22:39:00;;;;;;;;;5.50;3.00;;;;;6.51;82.74;101004.13;4980729;28;45437;-92
2023/01/13 22:41:25;;;;;;;;;3.75;3.25;;;;;7.37;82.90;101148.03;4967943;28;44845;-92
2023/01/13 22:43:51;;;;;;;;;4.00;4.00;;;;;7.76;83.38;101220.03;4963448;28;46365;-92
2023/01/13 22:46:16;;;;;;;;;5.75;3.00;;;;;6.89;83.13;101063.81;4965204;28;45337;-91
2023/01/13 22:48:42;;;;;;;;;2.00;1.00;;;;;7.28;82.94;101129.63;4970192;28;45392;-94
2023/01/13 22:51:13;;;;;;;;;4.00;3.00;;;;;7.77;82.82;101213.91;4966427;28;45314;-94
2023/01/13 22:53:39;;;;;;;;;8.25;3.75;;;;;6.22;83.48;100946.25;4968759;28;48124;-93
2023/01/13 22:56:10;;;;;;;;;2.50;1.75;;;;;5.18;83.31;100777.00;4954653;28;45286;-94
2023/01/13 22:59:21;;;;;;;;;2.25;2.00;;;;;7.76;82.44;101213.91;4970835;28;45291;-92
2023/01/13 23:01:48;;;;;;;;;3.00;2.00;;;;;6.58;83.00;101036.53;4990157;28;44947;-95
2023/01/13 23:04:14;;;;;;;;;6.00;4.00;;;;;6.90;83.36;101083.94;4969272;28;47045;-94
2023/01/13 23:06:40;;;;;;;;;5.50;3.75;;;;;6.66;83.08;101057.59;4948989;28;45204;-95
2023/01/13 23:09:06;;;;;;;;;4.00;4.00;;;;;7.26;83.96;101166.41;4964740;28;45339;-92
2023/01/13 23:11:32;;;;;;;;;2.50;2.50;;;;;7.79;83.33;101216.53;4964267;28;45302;-93
2023/01/13 23:13:59;;;;;;;;;2.25;1.25;;;;;5.83;83.15;100872.59;4951792;28;46128;-92
2023/01/13 23:16:29;;;;;;;;;3.25;2.25;;;;;6.33;83.69;100954.16;4966894;28;45364;-92
2023/01/13 23:18:57;;;;;;;;;4.00;3.00;;;;;7.85;83.41;101219.19;4965218;28;45259;-91
2023/01/13 23:21:27;;;;;;;;;2.00;2.00;;;;;6.28;83.31;100937.50;4968855;28;45602;-93
2023/01/13 23:23:56;;;;;;;;;3.00;2.00;;;;;6.57;82.98;100983.13;4969734;28;48245;-92
2023/01/13 23:26:22;;;;;;;;;4.25;1.00;;;;;7.89;83.63;101205.13;4977709;28;45432;-90
2023/01/13 23:28:48;;;;;;;;;3.75;2.75;;;;;6.47;84.10;100959.44;4981968;28;44667;-91
2023/01/13 23:31:20;;;;;;;;;5.00;2.25;;;;;7.97;83.39;101203.41;4981230;28;45318;-91
2023/01/13 23:34:10;;;;;;;;;2.00;2.00;;;;;6.79;83.25;101012.09;4965110;28;47138;-92
2023/01/13 23:36:42;;;;;;;;;2.50;2.00;;;;;8.04;83.43;101198.13;4967193;28;45421;-93
2023/01/13 23:39:08;;;;;;;;;3.25;2.25;;;;;8.04;83.64;101193.72;4964627;28;45280;-92
2023/01/13 23:41:33;;;;;;;;;2.00;2.00;;;;;7.53;83.95;101092.81;4967505;28;45246;-93
2023/01/13 23:44:00;;;;;;;;;1.00;1.00;;;;;7.01;83.53;100991.97;4963646;28;46178;-92
2023/01/13 23:46:31;;;;;;;;;1.75;1.50;;;;;6.73;84.20;100930.63;4963658;28;45424;-92
2023/01/13 23:49:00;;;;;;;;;3.00;2.00;;;;;7.34;83.96;101040.22;4951358;28;45386;-91
2023/01/13 23:51:28;;;;;;;;;2.50;2.50;;;;;7.18;83.86;100983.22;4971542;28;45407;-92
2023/01/13 23:54:13;;;;;;;;;2.00;2.00;;;;;6.64;84.15;100886.81;4965293;28;47279;-92
2023/01/13 23:56:39;;;;;;;;;3.00;2.00;;;;;6.45;84.26;100851.78;4964358;28;45759;-92
2023/01/13 23:59:05;;;;;;;;;3.75;2.50;;;;;7.67;84.10;101038.47;4965436;28;45251;-93
